createdAt,value
2023-02-23T00:00:30.350Z,5.93
2023-02-23T00:02:59.082Z,6.20
2023-02-23T00:05:26.634Z,5.63
2023-02-23T00:07:55.576Z,5.50
2023-02-23T00:10:33.085Z,5.77
2023-02-23T00:13:00.101Z,5.77
2023-02-23T00:15:27.662Z,5.73
2023-02-23T00:17:55.762Z,5.20
2023-02-23T00:20:28.199Z,5.33
2023-02-23T00:22:56.256Z,5.43
2023-02-23T00:25:24.054Z,6.00
2023-02-23T00:27:52.140Z,4.77
2023-02-23T00:30:21.679Z,5.67
2023-02-23T00:32:49.997Z,5.33
2023-02-23T00:35:17.592Z,5.43
2023-02-23T00:37:46.067Z,6.10
2023-02-23T00:40:16.674Z,5.70
2023-02-23T00:42:47.072Z,5.27
2023-02-23T00:45:16.922Z,5.70
2023-02-23T00:47:48.540Z,6.00
2023-02-23T00:50:16.340Z,5.10
2023-02-23T00:52:45.313Z,5.10
2023-02-23T00:55:15.237Z,5.30
2023-02-23T00:57:42.026Z,5.70
2023-02-23T01:00:18.591Z,5.30
2023-02-23T01:02:45.583Z,6.30
2023-02-23T01:05:13.610Z,5.87
2023-02-23T01:07:40.821Z,5.60
2023-02-23T01:10:19.323Z,5.60
2023-02-23T01:12:48.304Z,5.70
2023-02-23T01:15:19.874Z,6.07
2023-02-23T01:17:46.841Z,5.80
2023-02-23T01:20:19.403Z,5.83
2023-02-23T01:22:55.279Z,6.03
2023-02-23T01:25:28.584Z,6.30
2023-02-23T01:28:00.596Z,6.17
2023-02-23T01:30:31.876Z,6.13
2023-02-23T01:33:03.500Z,5.83
2023-02-23T01:35:30.393Z,5.93
2023-02-23T01:38:00.301Z,6.23
2023-02-23T01:40:31.941Z,5.93
2023-02-23T01:42:59.767Z,5.77
2023-02-23T01:45:28.211Z,6.00
2023-02-23T01:47:57.275Z,5.97
2023-02-23T01:50:30.641Z,6.33
2023-02-23T01:52:58.824Z,5.90
2023-02-23T01:55:26.332Z,6.43
2023-02-23T01:58:11.676Z,6.40
2023-02-23T02:00:38.432Z,6.40
2023-02-23T02:03:12.191Z,5.83
2023-02-23T02:05:41.206Z,6.40
2023-02-23T02:08:10.376Z,6.63
2023-02-23T02:10:40.228Z,6.40
2023-02-23T02:13:08.191Z,6.53
2023-02-23T02:15:38.721Z,5.93
2023-02-23T02:18:18.747Z,6.57
2023-02-23T02:21:27.149Z,6.53
2023-02-23T02:24:02.684Z,6.13
2023-02-23T02:26:38.850Z,6.77
2023-02-23T02:29:47.964Z,6.90
2023-02-23T02:32:39.436Z,7.23
2023-02-23T02:35:29.091Z,6.63
2023-02-23T02:38:16.557Z,7.23
2023-02-23T02:40:55.989Z,7.13
2023-02-23T02:43:46.967Z,7.23
2023-02-23T02:46:14.938Z,7.37
2023-02-23T02:49:00.093Z,7.10
2023-02-23T02:51:29.319Z,7.20
2023-02-23T02:54:07.573Z,7.50
2023-02-23T02:56:40.941Z,7.77
2023-02-23T02:59:33.726Z,6.90
2023-02-23T03:02:18.691Z,7.60
2023-02-23T03:05:03.837Z,7.40
2023-02-23T03:07:55.562Z,7.70
2023-02-23T03:11:02.736Z,7.43
2023-02-23T03:13:57.134Z,7.50
2023-02-23T03:17:15.315Z,7.87
2023-02-23T03:20:13.635Z,7.30
2023-02-23T03:23:16.087Z,8.17
2023-02-23T03:26:09.859Z,7.47
2023-02-23T03:29:09.333Z,7.33
2023-02-23T03:32:08.215Z,8.30
2023-02-23T03:35:05.933Z,7.63
2023-02-23T03:37:57.748Z,7.97
2023-02-23T03:40:54.319Z,7.77
2023-02-23T03:43:44.195Z,7.57
2023-02-23T03:46:31.433Z,7.80
2023-02-23T03:49:17.956Z,7.77
2023-02-23T03:52:05.647Z,8.27
2023-02-23T03:55:07.026Z,8.83
2023-02-23T03:57:53.181Z,7.83
2023-02-23T04:00:48.477Z,7.90
2023-02-23T04:03:35.114Z,7.70
2023-02-23T04:06:20.875Z,7.70
2023-02-23T04:09:05.980Z,7.87
2023-02-23T04:12:15.010Z,7.83
2023-02-23T04:14:51.631Z,7.37
2023-02-23T04:17:18.738Z,7.00
2023-02-23T04:19:56.843Z,7.57
2023-02-23T04:22:23.869Z,7.60
2023-02-23T04:24:50.884Z,7.50
2023-02-23T04:27:20.291Z,7.77
2023-02-23T04:29:47.060Z,6.80
2023-02-23T04:32:15.663Z,7.20
2023-02-23T04:34:45.461Z,7.33
2023-02-23T04:37:12.367Z,7.23
2023-02-23T04:39:39.158Z,7.17
2023-02-23T04:42:06.127Z,6.70
2023-02-23T04:44:32.888Z,7.57
2023-02-23T04:46:59.680Z,7.03
2023-02-23T04:49:26.554Z,7.07
2023-02-23T04:51:55.590Z,6.37
2023-02-23T04:54:22.530Z,7.60
2023-02-23T04:56:49.313Z,6.97
2023-02-23T04:59:18.652Z,6.80
2023-02-23T05:01:45.498Z,6.70
2023-02-23T05:04:12.379Z,6.57
2023-02-23T05:06:39.147Z,6.77
2023-02-23T05:09:07.001Z,6.73
2023-02-23T05:11:33.782Z,6.50
2023-02-23T05:14:00.593Z,6.93
2023-02-23T05:16:28.069Z,6.77
2023-02-23T05:18:57.381Z,6.90
2023-02-23T05:21:25.040Z,6.70
2023-02-23T05:23:54.392Z,6.20
2023-02-23T05:26:21.174Z,6.93
2023-02-23T05:28:48.794Z,5.93
2023-02-23T05:31:15.731Z,6.80
2023-02-23T05:33:45.829Z,6.90
2023-02-23T05:36:13.888Z,6.47
2023-02-23T05:38:42.983Z,6.23
2023-02-23T05:41:11.633Z,7.10
2023-02-23T05:43:41.036Z,7.40
2023-02-23T05:46:12.002Z,6.77
2023-02-23T05:48:38.942Z,6.40
2023-02-23T05:51:07.124Z,6.23
2023-02-23T05:53:33.983Z,6.33
2023-02-23T05:56:01.989Z,6.37
2023-02-23T05:58:28.905Z,5.93
2023-02-23T06:00:56.356Z,7.03
2023-02-23T06:03:25.854Z,6.60
2023-02-23T06:05:53.499Z,6.83
2023-02-23T06:08:20.417Z,6.17
2023-02-23T06:10:47.326Z,6.27
2023-02-23T06:13:14.454Z,5.97
2023-02-23T06:15:41.654Z,6.43
2023-02-23T06:18:11.600Z,6.83
2023-02-23T06:20:40.301Z,6.20
2023-02-23T06:23:07.634Z,6.17
2023-02-23T06:25:37.095Z,6.67
2023-02-23T06:28:04.065Z,5.93
2023-02-23T06:30:30.995Z,5.80
2023-02-23T06:32:59.964Z,7.07
2023-02-23T06:35:28.967Z,6.23
2023-02-23T06:37:55.958Z,6.33
2023-02-23T06:40:24.981Z,6.00
2023-02-23T06:42:51.864Z,5.50
2023-02-23T06:45:19.452Z,5.50
2023-02-23T06:47:47.193Z,6.33
2023-02-23T06:50:19.111Z,6.43
2023-02-23T06:52:46.133Z,6.97
2023-02-23T06:55:15.784Z,6.33
2023-02-23T06:57:44.841Z,6.37
2023-02-23T07:00:15.189Z,6.23
2023-02-23T07:02:44.847Z,6.50
2023-02-23T07:05:11.637Z,7.20
2023-02-23T07:07:40.944Z,6.10
2023-02-23T07:10:08.174Z,6.10
2023-02-23T07:12:34.947Z,6.43
2023-02-23T07:15:04.049Z,6.50
2023-02-23T07:17:38.381Z,6.70
2023-02-23T07:20:05.655Z,6.33
2023-02-23T07:22:34.245Z,6.87
2023-02-23T07:25:01.257Z,6.77
2023-02-23T07:27:28.261Z,6.60
2023-02-23T07:29:55.105Z,6.53
2023-02-23T07:32:22.056Z,6.57
2023-02-23T07:34:48.976Z,6.73
2023-02-23T07:37:17.112Z,7.33
2023-02-23T07:39:44.198Z,6.67
2023-02-23T07:42:11.001Z,6.83
2023-02-23T07:44:40.325Z,6.97
2023-02-23T07:47:07.341Z,7.40
2023-02-23T07:49:37.419Z,6.80
2023-02-23T07:52:04.392Z,7.00
2023-02-23T07:54:36.049Z,6.17
2023-02-23T07:57:02.852Z,6.83
2023-02-23T07:59:29.694Z,6.53
2023-02-23T08:01:56.578Z,7.13
2023-02-23T08:04:25.744Z,6.90
2023-02-23T08:06:52.536Z,7.07
2023-02-23T08:09:21.515Z,6.87
2023-02-23T08:11:48.310Z,7.23
2023-02-23T08:14:15.173Z,7.23
2023-02-23T08:16:41.977Z,6.63
2023-02-23T08:19:11.236Z,7.63
2023-02-23T08:21:38.085Z,7.53
2023-02-23T08:24:05.020Z,7.27
2023-02-23T08:26:31.930Z,7.07
2023-02-23T08:28:58.728Z,7.20
2023-02-23T08:31:28.119Z,7.13
2023-02-23T08:33:57.284Z,7.10
2023-02-23T08:36:24.130Z,7.43
2023-02-23T08:38:51.027Z,7.47
2023-02-23T08:41:18.403Z,7.57
2023-02-23T08:43:45.576Z,7.37
2023-02-23T08:46:14.818Z,7.50
2023-02-23T08:48:41.620Z,7.33
2023-02-23T08:51:08.612Z,7.27
2023-02-23T08:53:35.817Z,7.17
2023-02-23T08:56:04.630Z,7.27
2023-02-23T08:58:31.783Z,7.77
2023-02-23T09:00:58.803Z,7.33
2023-02-23T09:03:30.171Z,7.43
2023-02-23T09:06:04.788Z,8.07
2023-02-23T09:08:31.590Z,7.00
2023-02-23T09:11:00.615Z,7.80
2023-02-23T09:13:31.911Z,7.67
2023-02-23T09:16:01.000Z,8.20
2023-02-23T09:18:29.537Z,7.57
2023-02-23T09:20:56.766Z,8.27
2023-02-23T09:23:24.255Z,8.37
2023-02-23T09:25:51.060Z,8.30
2023-02-23T09:28:21.082Z,8.07
2023-02-23T09:30:48.337Z,8.30
2023-02-23T09:33:15.225Z,7.83
2023-02-23T09:35:42.062Z,8.13
2023-02-23T09:38:11.085Z,8.03
2023-02-23T09:40:49.861Z,8.20
2023-02-23T09:43:25.078Z,8.20
2023-02-23T09:46:27.033Z,8.30
2023-02-23T09:48:57.419Z,8.80
2023-02-23T09:51:26.673Z,8.27
2023-02-23T09:54:02.550Z,8.00
2023-02-23T09:56:44.342Z,8.03
2023-02-23T09:59:15.910Z,8.30
2023-02-23T10:01:51.203Z,7.80
2023-02-23T10:04:22.396Z,7.87
2023-02-23T10:07:01.320Z,8.73
2023-02-23T10:09:44.337Z,8.13
2023-02-23T10:12:35.094Z,8.07
2023-02-23T10:15:13.966Z,8.90
2023-02-23T10:18:05.650Z,8.67
2023-02-23T10:20:38.286Z,8.07
2023-02-23T10:23:09.657Z,8.40
2023-02-23T10:25:38.551Z,8.17
2023-02-23T10:28:05.315Z,8.13
2023-02-23T10:30:35.707Z,8.53
2023-02-23T10:33:05.733Z,8.50
2023-02-23T10:35:33.751Z,8.33
2023-02-23T10:38:01.076Z,8.37
2023-02-23T10:40:29.145Z,8.37
2023-02-23T10:42:56.579Z,8.30
2023-02-23T10:45:29.812Z,9.30
2023-02-23T10:48:05.540Z,7.70
2023-02-23T10:50:32.689Z,7.47
2023-02-23T10:53:12.738Z,8.17
2023-02-23T10:55:39.506Z,9.10
2023-02-23T10:58:17.101Z,8.77
2023-02-23T11:01:02.512Z,8.60
2023-02-23T11:03:42.831Z,7.90
2023-02-23T11:06:35.604Z,8.83
2023-02-23T11:09:45.653Z,8.43
2023-02-23T11:12:29.712Z,8.73
2023-02-23T11:14:57.238Z,8.37
2023-02-23T11:17:33.920Z,8.60
2023-02-23T11:20:30.532Z,8.90
2023-02-23T11:23:09.513Z,8.80
2023-02-23T11:25:43.401Z,8.37
2023-02-23T11:28:22.309Z,8.37
2023-02-23T11:30:49.295Z,8.47
2023-02-23T11:33:17.703Z,8.97
2023-02-23T11:35:44.529Z,7.93
2023-02-23T11:38:32.498Z,8.13
2023-02-23T11:41:11.359Z,7.87
2023-02-23T11:43:40.602Z,7.97
2023-02-23T11:46:11.566Z,8.63
2023-02-23T11:48:44.540Z,8.27
2023-02-23T11:51:11.351Z,8.10
2023-02-23T11:53:40.507Z,7.60
2023-02-23T11:56:13.400Z,8.30
2023-02-23T11:59:00.076Z,8.43
2023-02-23T12:01:45.589Z,7.70
2023-02-23T12:04:52.313Z,8.60
2023-02-23T12:07:43.797Z,7.57
2023-02-23T12:10:13.816Z,7.47
2023-02-23T12:13:02.720Z,7.30
2023-02-23T12:15:40.730Z,7.60
2023-02-23T12:18:50.844Z,8.10
2023-02-23T12:21:32.725Z,7.90
2023-02-23T12:24:08.461Z,7.40
2023-02-23T12:26:41.502Z,7.50
2023-02-23T12:29:37.044Z,7.57
2023-02-23T12:32:10.597Z,7.53
2023-02-23T12:35:14.614Z,7.03
2023-02-23T12:37:55.452Z,7.03
2023-02-23T12:40:23.091Z,6.87
2023-02-23T12:42:56.729Z,7.17
2023-02-23T12:45:34.923Z,7.27
2023-02-23T12:48:10.078Z,6.90
2023-02-23T12:50:43.489Z,7.23
2023-02-23T12:53:28.968Z,7.00
2023-02-23T12:56:04.835Z,7.67
2023-02-23T12:58:42.812Z,6.70
2023-02-23T13:01:12.879Z,7.10
2023-02-23T13:04:45.070Z,7.33
2023-02-23T13:07:34.495Z,6.40
2023-02-23T13:10:28.958Z,6.67
2023-02-23T13:13:28.342Z,7.40
2023-02-23T13:16:26.364Z,6.57
2023-02-23T13:19:10.278Z,7.00
2023-02-23T13:21:59.356Z,7.27
2023-02-23T13:24:40.235Z,6.83
2023-02-23T13:27:18.590Z,7.20
2023-02-23T13:29:49.611Z,7.80
2023-02-23T13:32:24.403Z,7.53
2023-02-23T13:34:58.218Z,7.17
2023-02-23T13:37:45.566Z,6.33
2023-02-23T13:40:47.733Z,8.53
2023-02-23T13:43:29.717Z,7.17
2023-02-23T13:46:29.661Z,7.90
2023-02-23T13:49:17.261Z,7.30
2023-02-23T13:51:57.698Z,7.20
2023-02-23T13:54:33.797Z,6.70
2023-02-23T13:57:05.582Z,7.63
2023-02-23T13:59:38.579Z,6.90
2023-02-23T14:02:41.530Z,6.83
2023-02-23T14:05:17.337Z,7.00
2023-02-23T14:07:48.187Z,6.90
2023-02-23T14:10:27.171Z,7.73
2023-02-23T14:13:07.249Z,7.20
2023-02-23T14:15:39.759Z,7.07
2023-02-23T14:18:18.974Z,7.27
2023-02-23T14:21:07.630Z,7.63
2023-02-23T14:24:02.465Z,7.00
2023-02-23T14:26:29.229Z,7.50
2023-02-23T14:29:27.257Z,7.40
2023-02-23T14:32:00.267Z,7.90
2023-02-23T14:34:52.035Z,7.47
2023-02-23T14:37:38.102Z,7.20
2023-02-23T14:40:10.827Z,7.73
2023-02-23T14:42:38.004Z,6.97
2023-02-23T14:45:28.951Z,7.57
2023-02-23T14:48:01.757Z,7.20
2023-02-23T14:50:32.487Z,7.60
2023-02-23T14:53:01.415Z,7.87
2023-02-23T14:55:29.793Z,6.97
2023-02-23T14:57:56.818Z,7.90
2023-02-23T15:00:35.011Z,7.47
2023-02-23T15:03:02.696Z,7.97
2023-02-23T15:05:34.314Z,7.43
2023-02-23T15:08:04.780Z,7.30
2023-02-23T15:10:35.155Z,7.03
2023-02-23T15:13:07.646Z,7.13
2023-02-23T15:15:34.478Z,7.53
2023-02-23T15:18:02.421Z,7.53
2023-02-23T15:20:33.652Z,8.07
2023-02-23T15:23:02.591Z,8.37
2023-02-23T15:25:41.490Z,7.97
2023-02-23T15:28:33.316Z,7.93
2023-02-23T15:31:01.113Z,7.43
2023-02-23T15:33:31.112Z,7.73
2023-02-23T15:36:14.620Z,7.50
2023-02-23T15:38:46.269Z,7.87
2023-02-23T15:41:36.974Z,7.63
2023-02-23T15:44:10.206Z,7.93
2023-02-23T15:46:37.547Z,8.10
2023-02-23T15:49:07.555Z,7.97
2023-02-23T15:51:36.020Z,8.03
2023-02-23T15:54:07.901Z,9.50
2023-02-23T15:56:35.359Z,8.70
2023-02-23T15:59:03.901Z,8.70
2023-02-23T16:01:31.734Z,8.63
2023-02-23T16:04:13.154Z,8.50
2023-02-23T16:06:53.850Z,8.00
2023-02-23T16:09:24.130Z,9.57
2023-02-23T16:11:51.101Z,8.07
2023-02-23T16:14:19.949Z,9.17
2023-02-23T16:16:53.302Z,8.33
2023-02-23T16:19:30.524Z,8.87
2023-02-23T16:21:57.620Z,8.77
2023-02-23T16:24:28.585Z,9.13
2023-02-23T16:27:02.147Z,9.50
2023-02-23T16:29:45.074Z,8.97
2023-02-23T16:32:17.225Z,9.33
2023-02-23T16:34:54.786Z,9.70
2023-02-23T16:37:28.012Z,9.97
2023-02-23T16:40:00.236Z,9.33
2023-02-23T16:42:34.483Z,9.63
2023-02-23T16:45:04.045Z,10.70
2023-02-23T16:47:47.663Z,10.80
2023-02-23T16:50:22.507Z,9.80
2023-02-23T16:52:53.284Z,10.20
2023-02-23T16:55:27.430Z,9.47
2023-02-23T16:57:59.385Z,9.97
2023-02-23T17:00:31.956Z,11.27
2023-02-23T17:03:00.711Z,11.70
2023-02-23T17:05:30.895Z,10.80
2023-02-23T17:07:59.190Z,10.63
2023-02-23T17:10:29.231Z,10.30
2023-02-23T17:13:03.186Z,10.77
2023-02-23T17:15:37.748Z,10.90
2023-02-23T17:18:04.968Z,11.67
2023-02-23T17:20:34.002Z,11.00
2023-02-23T17:23:01.604Z,11.17
2023-02-23T17:25:28.570Z,11.77
2023-02-23T17:27:56.236Z,11.63
2023-02-23T17:30:25.945Z,11.93
2023-02-23T17:32:53.810Z,12.17
2023-02-23T17:35:21.044Z,11.43
2023-02-23T17:37:48.017Z,11.90
2023-02-23T17:40:26.304Z,11.70
2023-02-23T17:42:55.767Z,12.20
2023-02-23T17:45:22.841Z,12.63
2023-02-23T17:47:53.013Z,13.60
2023-02-23T17:50:20.227Z,13.70
2023-02-23T17:52:50.486Z,12.60
2023-02-23T17:55:17.677Z,12.23
2023-02-23T17:57:44.821Z,14.07
2023-02-23T18:00:13.444Z,14.07
2023-02-23T18:02:40.934Z,13.70
2023-02-23T18:05:08.622Z,13.60
2023-02-23T18:07:35.915Z,13.47
2023-02-23T18:10:12.999Z,14.00
2023-02-23T18:12:40.458Z,13.57
2023-02-23T18:15:12.551Z,13.93
2023-02-23T18:17:39.412Z,14.03
2023-02-23T18:20:06.865Z,13.30
2023-02-23T18:22:33.833Z,14.77
2023-02-23T18:25:02.750Z,14.87
2023-02-23T18:27:29.754Z,14.57
2023-02-23T18:29:59.628Z,14.40
2023-02-23T18:32:26.745Z,14.30
2023-02-23T18:34:56.770Z,14.40
2023-02-23T18:37:25.561Z,13.67
2023-02-23T18:39:53.876Z,15.13
2023-02-23T18:42:23.267Z,15.97
2023-02-23T18:44:50.386Z,14.60
2023-02-23T18:47:17.502Z,15.57
2023-02-23T18:49:44.459Z,15.37
2023-02-23T18:52:13.823Z,15.93
2023-02-23T18:54:40.939Z,15.60
2023-02-23T18:57:07.809Z,15.50
2023-02-23T18:59:34.720Z,16.00
2023-02-23T19:02:01.982Z,14.83
2023-02-23T19:04:28.912Z,16.53
2023-02-23T19:06:57.929Z,15.03
2023-02-23T19:09:27.376Z,15.27
2023-02-23T19:11:54.633Z,15.50
2023-02-23T19:14:32.863Z,15.20
2023-02-23T19:17:07.945Z,15.50
2023-02-23T19:19:34.719Z,15.70
2023-02-23T19:22:01.785Z,16.10
2023-02-23T19:24:31.003Z,16.27
2023-02-23T19:26:57.938Z,15.30
2023-02-23T19:29:29.772Z,15.17
2023-02-23T19:31:58.945Z,15.80
2023-02-23T19:34:26.713Z,15.43
2023-02-23T19:36:55.774Z,15.47
2023-02-23T19:39:22.674Z,15.70
2023-02-23T19:41:49.448Z,15.67
2023-02-23T19:44:16.301Z,14.97
2023-02-23T19:46:43.247Z,14.93
2023-02-23T19:49:13.013Z,16.53
2023-02-23T19:51:39.864Z,16.67
2023-02-23T19:54:07.565Z,15.87
2023-02-23T19:56:34.791Z,17.03
2023-02-23T19:59:02.336Z,16.07
2023-02-23T20:01:30.016Z,16.67
2023-02-23T20:04:06.512Z,17.10
2023-02-23T20:06:35.169Z,17.17
2023-02-23T20:09:02.613Z,17.63
2023-02-23T20:11:32.902Z,17.73
2023-02-23T20:14:00.461Z,17.23
2023-02-23T20:16:29.587Z,17.93
2023-02-23T20:18:59.750Z,17.33
2023-02-23T20:21:27.547Z,17.80
2023-02-23T20:23:57.028Z,17.50
2023-02-23T20:26:26.541Z,17.87
2023-02-23T20:28:54.031Z,17.97
2023-02-23T20:31:29.048Z,18.73
2023-02-23T20:33:56.401Z,18.13
2023-02-23T20:36:23.366Z,18.77
2023-02-23T20:38:50.152Z,18.13
2023-02-23T20:41:17.730Z,18.93
2023-02-23T20:43:46.781Z,19.67
2023-02-23T20:46:14.476Z,19.00
2023-02-23T20:48:41.861Z,19.73
2023-02-23T20:51:12.775Z,18.83
2023-02-23T20:53:40.137Z,19.23
2023-02-23T20:56:07.895Z,19.60
2023-02-23T20:58:34.696Z,19.57
2023-02-23T21:01:10.532Z,20.10
2023-02-23T21:03:37.379Z,20.23
2023-02-23T21:06:04.316Z,20.63
2023-02-23T21:08:31.220Z,20.13
2023-02-23T21:10:57.986Z,21.17
2023-02-23T21:13:26.527Z,21.07
2023-02-23T21:16:01.126Z,20.50
2023-02-23T21:18:28.805Z,22.30
2023-02-23T21:20:59.351Z,21.77
2023-02-23T21:23:26.234Z,22.60
2023-02-23T21:26:01.218Z,22.27
2023-02-23T21:28:28.002Z,22.60
2023-02-23T21:30:57.319Z,23.30
2023-02-23T21:33:26.555Z,23.07
2023-02-23T21:35:55.192Z,21.83
2023-02-23T21:38:28.126Z,23.17
2023-02-23T21:40:57.141Z,22.20
2023-02-23T21:43:28.077Z,23.43
2023-02-23T21:45:55.115Z,23.50
2023-02-23T21:48:21.960Z,24.60
2023-02-23T21:50:48.879Z,23.27
2023-02-23T21:53:15.691Z,23.90
2023-02-23T21:55:42.484Z,24.47
2023-02-23T21:58:09.771Z,24.60
2023-02-23T22:00:36.940Z,25.27
2023-02-23T22:03:03.946Z,25.20
2023-02-23T22:05:30.744Z,24.77
2023-02-23T22:07:57.527Z,25.73
2023-02-23T22:10:24.636Z,25.43
2023-02-23T22:12:56.129Z,25.03
2023-02-23T22:15:29.894Z,25.43
2023-02-23T22:17:59.221Z,26.40
2023-02-23T22:20:28.229Z,25.80
2023-02-23T22:22:55.034Z,26.37
2023-02-23T22:25:21.856Z,26.13
2023-02-23T22:27:48.658Z,27.53
2023-02-23T22:30:15.787Z,26.10
2023-02-23T22:32:43.228Z,27.17
2023-02-23T22:35:10.389Z,27.17
2023-02-23T22:37:37.296Z,26.53
2023-02-23T22:40:16.676Z,26.63
2023-02-23T22:42:49.658Z,26.40
2023-02-23T22:45:16.905Z,27.23
2023-02-23T22:47:43.650Z,27.97
2023-02-23T22:50:14.036Z,27.50
2023-02-23T22:52:42.985Z,27.40
2023-02-23T22:55:10.824Z,27.00
2023-02-23T22:57:37.651Z,28.10
2023-02-23T23:00:07.128Z,28.30
2023-02-23T23:02:36.394Z,29.73
2023-02-23T23:05:05.513Z,28.97
2023-02-23T23:07:32.511Z,29.17
2023-02-23T23:10:03.788Z,29.43
2023-02-23T23:12:31.908Z,28.40
2023-02-23T23:15:01.471Z,29.40
2023-02-23T23:17:33.727Z,29.50
2023-02-23T23:20:00.487Z,29.13
2023-02-23T23:22:27.560Z,31.23
2023-02-23T23:24:57.153Z,29.10
2023-02-23T23:27:26.571Z,29.77
2023-02-23T23:29:53.405Z,29.47
2023-02-23T23:32:27.524Z,29.80
2023-02-23T23:34:59.888Z,28.37
2023-02-23T23:37:29.167Z,30.33
2023-02-23T23:40:04.877Z,30.43
2023-02-23T23:42:31.792Z,30.17
2023-02-23T23:44:58.556Z,29.83
2023-02-23T23:47:30.449Z,30.30
2023-02-23T23:49:58.169Z,30.93
2023-02-23T23:52:25.262Z,31.17
2023-02-23T23:54:52.028Z,29.43
2023-02-23T23:57:18.816Z,31.13
2023-02-23T23:59:45.962Z,31.07
